Main page
METAR-TAF:

METAR-TAF

Airports :

McGregor Executive Airport

Waco, Texas, United States

latitude: 31-29N, longitude: 097-19W, elevation: 590 ft

Current weather observation

The report was made 34 minutes ago, at 20:56 UTC
Wind 9 mph from the Southeast
Temperature 93°F
Humidity 47%
Pressure 29.88 in. Hg
Visibility: 10 miles
Clear sky

METAR: KPWG 152056Z AUTO 13008KT 10SM CLR 34/21 A2988 RMK AO2 SLP111 T03390206 56019

Time: 16:30 (21:30 UTC)


TAF: missing

Weather observations and forecasts of more than 4000 airports (METAR and TAF reports).

The available stations are represented by yellow and red dots on the map.

Hover mouse over dot to see the name of the station.

Then click to see weather observations and forecasts.

To change the map : click on the green buttons with a black cross to zoom in, on the green button with a dash to zoom out, or on the green arrows for adjacent maps.


METAR-TAF: